sensor_id;sensor_type;location;lat;lon;timestamp;P1;durP1;ratioP1;P2;durP2;ratioP2
16440;SDS011;8330;-33.858;151.184;2022-11-27T00:00:28;3.65;;;1.80;;
16440;SDS011;8330;-33.858;151.184;2022-11-27T00:02:59;6.97;;;2.30;;
16440;SDS011;8330;-33.858;151.184;2022-11-27T00:05:31;5.68;;;2.40;;
16440;SDS011;8330;-33.858;151.184;2022-11-27T00:08:03;5.78;;;2.20;;
16440;SDS011;8330;-33.858;151.184;2022-11-27T00:10:35;6.07;;;2.47;;
16440;SDS011;8330;-33.858;151.184;2022-11-27T00:13:05;4.85;;;2.20;;
16440;SDS011;8330;-33.858;151.184;2022-11-27T00:15:36;7.28;;;2.13;;
16440;SDS011;8330;-33.858;151.184;2022-11-27T00:18:07;7.03;;;3.10;;
16440;SDS011;8330;-33.858;151.184;2022-11-27T00:20:38;7.05;;;2.10;;
16440;SDS011;8330;-33.858;151.184;2022-11-27T00:23:13;4.80;;;1.90;;
16440;SDS011;8330;-33.858;151.184;2022-11-27T00:25:48;5.00;;;2.20;;
16440;SDS011;8330;-33.858;151.184;2022-11-27T00:28:19;7.90;;;2.35;;
16440;SDS011;8330;-33.858;151.184;2022-11-27T00:30:50;5.90;;;2.47;;
16440;SDS011;8330;-33.858;151.184;2022-11-27T00:33:21;7.25;;;2.50;;
16440;SDS011;8330;-33.858;151.184;2022-11-27T00:35:51;4.88;;;2.05;;
16440;SDS011;8330;-33.858;151.184;2022-11-27T00:38:25;6.93;;;2.20;;
16440;SDS011;8330;-33.858;151.184;2022-11-27T00:40:57;4.35;;;1.90;;
16440;SDS011;8330;-33.858;151.184;2022-11-27T00:43:34;7.97;;;2.50;;
16440;SDS011;8330;-33.858;151.184;2022-11-27T00:46:05;6.47;;;2.40;;
16440;SDS011;8330;-33.858;151.184;2022-11-27T00:48:36;4.13;;;2.00;;
16440;SDS011;8330;-33.858;151.184;2022-11-27T00:51:07;6.10;;;2.33;;
16440;SDS011;8330;-33.858;151.184;2022-11-27T00:53:41;4.07;;;1.92;;
16440;SDS011;8330;-33.858;151.184;2022-11-27T00:56:14;6.40;;;2.63;;
16440;SDS011;8330;-33.858;151.184;2022-11-27T00:58:45;9.80;;;3.13;;
16440;SDS011;8330;-33.858;151.184;2022-11-27T01:01:16;14.32;;;3.60;;
16440;SDS011;8330;-33.858;151.184;2022-11-27T01:03:49;11.68;;;3.15;;
16440;SDS011;8330;-33.858;151.184;2022-11-27T01:06:20;13.40;;;3.47;;
16440;SDS011;8330;-33.858;151.184;2022-11-27T01:08:53;6.53;;;2.88;;
16440;SDS011;8330;-33.858;151.184;2022-11-27T01:11:25;10.60;;;3.55;;
16440;SDS011;8330;-33.858;151.184;2022-11-27T01:13:58;12.60;;;3.83;;
16440;SDS011;8330;-33.858;151.184;2022-11-27T01:16:31;9.95;;;3.33;;
16440;SDS011;8330;-33.858;151.184;2022-11-27T01:19:03;7.07;;;2.88;;
16440;SDS011;8330;-33.858;151.184;2022-11-27T01:21:34;8.77;;;2.90;;
16440;SDS011;8330;-33.858;151.184;2022-11-27T01:24:08;11.05;;;3.30;;
16440;SDS011;8330;-33.858;151.184;2022-11-27T01:26:39;5.97;;;2.70;;
16440;SDS011;8330;-33.858;151.184;2022-11-27T01:29:11;8.82;;;2.78;;
16440;SDS011;8330;-33.858;151.184;2022-11-27T01:31:42;8.40;;;2.70;;
16440;SDS011;8330;-33.858;151.184;2022-11-27T01:34:13;8.13;;;2.85;;
16440;SDS011;8330;-33.858;151.184;2022-11-27T01:36:44;5.93;;;2.75;;
16440;SDS011;8330;-33.858;151.184;2022-11-27T01:39:17;7.60;;;2.55;;
16440;SDS011;8330;-33.858;151.184;2022-11-27T01:41:49;9.00;;;3.28;;
16440;SDS011;8330;-33.858;151.184;2022-11-27T01:47:15;6.88;;;2.53;;
16440;SDS011;8330;-33.858;151.184;2022-11-27T01:49:55;8.45;;;2.75;;
16440;SDS011;8330;-33.858;151.184;2022-11-27T01:52:34;6.35;;;2.45;;
16440;SDS011;8330;-33.858;151.184;2022-11-27T01:55:10;7.97;;;2.47;;
16440;SDS011;8330;-33.858;151.184;2022-11-27T01:57:46;8.57;;;3.00;;
16440;SDS011;8330;-33.858;151.184;2022-11-27T02:00:19;5.55;;;2.90;;
16440;SDS011;8330;-33.858;151.184;2022-11-27T02:02:50;9.57;;;3.30;;
16440;SDS011;8330;-33.858;151.184;2022-11-27T02:05:22;10.40;;;3.60;;
16440;SDS011;8330;-33.858;151.184;2022-11-27T02:07:55;17.20;;;3.53;;
16440;SDS011;8330;-33.858;151.184;2022-11-27T02:10:31;12.18;;;3.40;;
16440;SDS011;8330;-33.858;151.184;2022-11-27T02:13:11;10.35;;;3.08;;
16440;SDS011;8330;-33.858;151.184;2022-11-27T02:15:47;7.75;;;2.83;;
16440;SDS011;8330;-33.858;151.184;2022-11-27T02:18:24;7.50;;;2.97;;
16440;SDS011;8330;-33.858;151.184;2022-11-27T02:21:03;8.75;;;3.03;;
16440;SDS011;8330;-33.858;151.184;2022-11-27T02:26:54;7.28;;;3.10;;
16440;SDS011;8330;-33.858;151.184;2022-11-27T02:29:46;7.30;;;2.95;;
16440;SDS011;8330;-33.858;151.184;2022-11-27T02:32:23;10.40;;;2.80;;
16440;SDS011;8330;-33.858;151.184;2022-11-27T02:34:57;7.30;;;2.92;;
16440;SDS011;8330;-33.858;151.184;2022-11-27T02:37:33;8.13;;;2.80;;
16440;SDS011;8330;-33.858;151.184;2022-11-27T02:40:10;10.77;;;3.20;;
16440;SDS011;8330;-33.858;151.184;2022-11-27T02:42:44;7.15;;;3.05;;
16440;SDS011;8330;-33.858;151.184;2022-11-27T02:45:20;8.60;;;3.10;;
16440;SDS011;8330;-33.858;151.184;2022-11-27T02:47:56;5.30;;;2.58;;
16440;SDS011;8330;-33.858;151.184;2022-11-27T02:50:27;9.95;;;3.00;;
16440;SDS011;8330;-33.858;151.184;2022-11-27T02:53:00;13.15;;;3.22;;
16440;SDS011;8330;-33.858;151.184;2022-11-27T02:55:34;16.33;;;3.10;;
16440;SDS011;8330;-33.858;151.184;2022-11-27T02:58:09;5.13;;;2.53;;
16440;SDS011;8330;-33.858;151.184;2022-11-27T03:00:46;10.50;;;3.58;;
16440;SDS011;8330;-33.858;151.184;2022-11-27T03:03:19;7.85;;;3.15;;
16440;SDS011;8330;-33.858;151.184;2022-11-27T03:05:53;8.25;;;3.30;;
16440;SDS011;8330;-33.858;151.184;2022-11-27T03:08:30;7.25;;;3.03;;
16440;SDS011;8330;-33.858;151.184;2022-11-27T03:11:06;7.28;;;3.05;;
16440;SDS011;8330;-33.858;151.184;2022-11-27T03:13:38;7.50;;;2.95;;
16440;SDS011;8330;-33.858;151.184;2022-11-27T03:16:14;12.23;;;3.45;;
16440;SDS011;8330;-33.858;151.184;2022-11-27T03:18:51;11.45;;;3.15;;
16440;SDS011;8330;-33.858;151.184;2022-11-27T03:21:30;7.32;;;3.22;;
16440;SDS011;8330;-33.858;151.184;2022-11-27T03:24:04;8.63;;;3.00;;
16440;SDS011;8330;-33.858;151.184;2022-11-27T03:26:37;7.63;;;3.30;;
16440;SDS011;8330;-33.858;151.184;2022-11-27T03:29:09;8.20;;;3.05;;
16440;SDS011;8330;-33.858;151.184;2022-11-27T03:31:44;9.27;;;3.03;;
16440;SDS011;8330;-33.858;151.184;2022-11-27T03:34:16;11.93;;;3.53;;
16440;SDS011;8330;-33.858;151.184;2022-11-27T03:36:47;8.55;;;3.03;;
16440;SDS011;8330;-33.858;151.184;2022-11-27T03:39:19;7.30;;;3.30;;
16440;SDS011;8330;-33.858;151.184;2022-11-27T03:41:52;9.80;;;3.35;;
16440;SDS011;8330;-33.858;151.184;2022-11-27T03:44:31;11.57;;;3.25;;
16440;SDS011;8330;-33.858;151.184;2022-11-27T03:47:14;9.57;;;3.38;;
16440;SDS011;8330;-33.858;151.184;2022-11-27T03:49:58;8.27;;;3.50;;
16440;SDS011;8330;-33.858;151.184;2022-11-27T03:52:40;8.65;;;3.50;;
16440;SDS011;8330;-33.858;151.184;2022-11-27T03:55:20;10.38;;;3.42;;
16440;SDS011;8330;-33.858;151.184;2022-11-27T03:58:00;11.68;;;3.90;;
16440;SDS011;8330;-33.858;151.184;2022-11-27T04:00:36;8.45;;;3.05;;
16440;SDS011;8330;-33.858;151.184;2022-11-27T04:03:11;11.40;;;2.95;;
16440;SDS011;8330;-33.858;151.184;2022-11-27T04:05:43;5.95;;;2.78;;
16440;SDS011;8330;-33.858;151.184;2022-11-27T04:08:13;9.32;;;3.40;;
16440;SDS011;8330;-33.858;151.184;2022-11-27T04:10:44;12.85;;;3.28;;
16440;SDS011;8330;-33.858;151.184;2022-11-27T04:13:16;11.35;;;3.50;;
16440;SDS011;8330;-33.858;151.184;2022-11-27T04:15:47;11.07;;;3.10;;
16440;SDS011;8330;-33.858;151.184;2022-11-27T04:18:20;6.82;;;3.20;;
16440;SDS011;8330;-33.858;151.184;2022-11-27T04:20:51;8.63;;;3.00;;
16440;SDS011;8330;-33.858;151.184;2022-11-27T04:23:22;7.88;;;2.90;;
16440;SDS011;8330;-33.858;151.184;2022-11-27T04:25:52;8.95;;;3.45;;
16440;SDS011;8330;-33.858;151.184;2022-11-27T04:28:23;8.73;;;3.10;;
16440;SDS011;8330;-33.858;151.184;2022-11-27T04:30:54;8.75;;;3.22;;
16440;SDS011;8330;-33.858;151.184;2022-11-27T04:33:27;6.70;;;2.95;;
16440;SDS011;8330;-33.858;151.184;2022-11-27T04:35:57;6.00;;;2.78;;
16440;SDS011;8330;-33.858;151.184;2022-11-27T04:38:28;8.05;;;2.90;;
16440;SDS011;8330;-33.858;151.184;2022-11-27T04:40:59;6.43;;;2.75;;
16440;SDS011;8330;-33.858;151.184;2022-11-27T04:43:30;10.00;;;3.30;;
16440;SDS011;8330;-33.858;151.184;2022-11-27T04:46:00;7.38;;;2.50;;
16440;SDS011;8330;-33.858;151.184;2022-11-27T04:48:33;9.73;;;3.03;;
16440;SDS011;8330;-33.858;151.184;2022-11-27T04:51:04;5.05;;;2.60;;
16440;SDS011;8330;-33.858;151.184;2022-11-27T04:53:35;7.60;;;3.00;;
16440;SDS011;8330;-33.858;151.184;2022-11-27T04:56:06;7.90;;;3.22;;
16440;SDS011;8330;-33.858;151.184;2022-11-27T04:58:36;11.18;;;3.20;;
16440;SDS011;8330;-33.858;151.184;2022-11-27T05:01:07;6.45;;;3.30;;
16440;SDS011;8330;-33.858;151.184;2022-11-27T05:03:40;8.65;;;3.10;;
16440;SDS011;8330;-33.858;151.184;2022-11-27T05:06:11;7.22;;;3.03;;
16440;SDS011;8330;-33.858;151.184;2022-11-27T05:08:42;8.90;;;3.33;;
16440;SDS011;8330;-33.858;151.184;2022-11-27T05:11:13;6.72;;;2.88;;
16440;SDS011;8330;-33.858;151.184;2022-11-27T05:13:45;9.32;;;3.50;;
16440;SDS011;8330;-33.858;151.184;2022-11-27T05:16:37;7.18;;;3.35;;
16440;SDS011;8330;-33.858;151.184;2022-11-27T05:19:11;10.05;;;2.88;;
16440;SDS011;8330;-33.858;151.184;2022-11-27T05:21:42;7.72;;;3.45;;
16440;SDS011;8330;-33.858;151.184;2022-11-27T05:24:14;11.68;;;3.10;;
16440;SDS011;8330;-33.858;151.184;2022-11-27T05:26:45;8.27;;;3.50;;
16440;SDS011;8330;-33.858;151.184;2022-11-27T05:29:17;8.00;;;3.28;;
16440;SDS011;8330;-33.858;151.184;2022-11-27T05:31:48;7.95;;;3.40;;
16440;SDS011;8330;-33.858;151.184;2022-11-27T05:34:21;9.25;;;3.15;;
16440;SDS011;8330;-33.858;151.184;2022-11-27T05:36:52;11.57;;;3.47;;
16440;SDS011;8330;-33.858;151.184;2022-11-27T05:39:22;12.75;;;3.83;;
16440;SDS011;8330;-33.858;151.184;2022-11-27T05:41:53;8.80;;;2.90;;
16440;SDS011;8330;-33.858;151.184;2022-11-27T05:44:25;7.93;;;3.25;;
16440;SDS011;8330;-33.858;151.184;2022-11-27T05:46:56;10.02;;;3.33;;
16440;SDS011;8330;-33.858;151.184;2022-11-27T05:49:28;8.05;;;3.08;;
16440;SDS011;8330;-33.858;151.184;2022-11-27T05:51:59;10.27;;;3.10;;
16440;SDS011;8330;-33.858;151.184;2022-11-27T05:54:30;6.63;;;2.70;;
16440;SDS011;8330;-33.858;151.184;2022-11-27T05:57:00;13.10;;;3.50;;
16440;SDS011;8330;-33.858;151.184;2022-11-27T05:59:31;6.50;;;2.75;;
16440;SDS011;8330;-33.858;151.184;2022-11-27T06:02:03;11.18;;;3.00;;
16440;SDS011;8330;-33.858;151.184;2022-11-27T06:04:35;9.77;;;3.35;;
16440;SDS011;8330;-33.858;151.184;2022-11-27T06:07:06;8.38;;;2.60;;
16440;SDS011;8330;-33.858;151.184;2022-11-27T06:09:37;9.55;;;3.30;;
16440;SDS011;8330;-33.858;151.184;2022-11-27T06:12:08;7.03;;;3.30;;
16440;SDS011;8330;-33.858;151.184;2022-11-27T06:14:39;8.07;;;3.10;;
16440;SDS011;8330;-33.858;151.184;2022-11-27T06:17:09;9.65;;;2.83;;
16440;SDS011;8330;-33.858;151.184;2022-11-27T06:19:43;9.55;;;2.50;;
16440;SDS011;8330;-33.858;151.184;2022-11-27T06:22:14;9.07;;;3.28;;
16440;SDS011;8330;-33.858;151.184;2022-11-27T06:24:45;16.65;;;4.35;;
16440;SDS011;8330;-33.858;151.184;2022-11-27T06:27:15;10.55;;;3.60;;
16440;SDS011;8330;-33.858;151.184;2022-11-27T06:29:46;6.55;;;2.22;;
16440;SDS011;8330;-33.858;151.184;2022-11-27T06:32:18;7.70;;;2.00;;
16440;SDS011;8330;-33.858;151.184;2022-11-27T06:34:50;23.17;;;8.35;;
16440;SDS011;8330;-33.858;151.184;2022-11-27T06:37:21;23.90;;;9.15;;
16440;SDS011;8330;-33.858;151.184;2022-11-27T06:39:52;12.63;;;3.00;;
16440;SDS011;8330;-33.858;151.184;2022-11-27T06:42:23;11.18;;;2.85;;
16440;SDS011;8330;-33.858;151.184;2022-11-27T06:44:56;8.48;;;2.85;;
16440;SDS011;8330;-33.858;151.184;2022-11-27T06:47:27;9.00;;;2.58;;
16440;SDS011;8330;-33.858;151.184;2022-11-27T06:49:59;6.90;;;2.20;;
16440;SDS011;8330;-33.858;151.184;2022-11-27T06:52:30;8.00;;;1.80;;
16440;SDS011;8330;-33.858;151.184;2022-11-27T06:55:01;6.88;;;2.00;;
16440;SDS011;8330;-33.858;151.184;2022-11-27T06:57:32;5.47;;;2.00;;
16440;SDS011;8330;-33.858;151.184;2022-11-27T07:00:02;7.47;;;2.05;;
16440;SDS011;8330;-33.858;151.184;2022-11-27T07:02:35;3.78;;;1.77;;
16440;SDS011;8330;-33.858;151.184;2022-11-27T07:05:08;6.20;;;1.58;;
16440;SDS011;8330;-33.858;151.184;2022-11-27T07:07:38;7.30;;;1.70;;
16440;SDS011;8330;-33.858;151.184;2022-11-27T07:10:09;7.22;;;2.03;;
16440;SDS011;8330;-33.858;151.184;2022-11-27T07:12:40;6.75;;;2.20;;
16440;SDS011;8330;-33.858;151.184;2022-11-27T07:15:11;6.47;;;2.10;;
16440;SDS011;8330;-33.858;151.184;2022-11-27T07:17:42;6.38;;;2.10;;
16440;SDS011;8330;-33.858;151.184;2022-11-27T07:20:14;6.82;;;2.05;;
16440;SDS011;8330;-33.858;151.184;2022-11-27T07:22:46;8.25;;;2.25;;
16440;SDS011;8330;-33.858;151.184;2022-11-27T07:25:17;8.57;;;2.35;;
16440;SDS011;8330;-33.858;151.184;2022-11-27T07:27:48;5.20;;;2.30;;
16440;SDS011;8330;-33.858;151.184;2022-11-27T07:30:18;5.65;;;2.30;;
16440;SDS011;8330;-33.858;151.184;2022-11-27T07:32:49;8.18;;;2.30;;
16440;SDS011;8330;-33.858;151.184;2022-11-27T07:35:22;8.18;;;2.72;;
16440;SDS011;8330;-33.858;151.184;2022-11-27T07:37:53;5.45;;;2.42;;
16440;SDS011;8330;-33.858;151.184;2022-11-27T07:40:24;9.98;;;3.53;;
16440;SDS011;8330;-33.858;151.184;2022-11-27T07:42:54;6.85;;;3.70;;
16440;SDS011;8330;-33.858;151.184;2022-11-27T07:45:27;9.73;;;3.72;;
16440;SDS011;8330;-33.858;151.184;2022-11-27T07:47:57;13.05;;;3.80;;
16440;SDS011;8330;-33.858;151.184;2022-11-27T07:50:30;8.45;;;3.17;;
16440;SDS011;8330;-33.858;151.184;2022-11-27T07:53:01;7.55;;;2.85;;
16440;SDS011;8330;-33.858;151.184;2022-11-27T07:55:32;7.15;;;2.85;;
16440;SDS011;8330;-33.858;151.184;2022-11-27T07:58:05;6.78;;;3.10;;
16440;SDS011;8330;-33.858;151.184;2022-11-27T08:00:36;7.20;;;3.03;;
16440;SDS011;8330;-33.858;151.184;2022-11-27T08:03:08;6.35;;;2.88;;
16440;SDS011;8330;-33.858;151.184;2022-11-27T08:05:40;9.35;;;2.92;;
16440;SDS011;8330;-33.858;151.184;2022-11-27T08:08:11;8.48;;;2.58;;
16440;SDS011;8330;-33.858;151.184;2022-11-27T08:10:42;7.32;;;2.58;;
16440;SDS011;8330;-33.858;151.184;2022-11-27T08:13:13;7.90;;;2.90;;
16440;SDS011;8330;-33.858;151.184;2022-11-27T08:15:43;7.40;;;3.00;;
16440;SDS011;8330;-33.858;151.184;2022-11-27T08:18:14;6.47;;;2.60;;
16440;SDS011;8330;-33.858;151.184;2022-11-27T08:20:47;14.82;;;8.15;;
16440;SDS011;8330;-33.858;151.184;2022-11-27T08:23:17;11.20;;;4.72;;
16440;SDS011;8330;-33.858;151.184;2022-11-27T08:25:48;17.50;;;6.47;;
16440;SDS011;8330;-33.858;151.184;2022-11-27T08:28:19;22.73;;;10.20;;
16440;SDS011;8330;-33.858;151.184;2022-11-27T08:30:54;6.03;;;2.90;;
16440;SDS011;8330;-33.858;151.184;2022-11-27T08:33:29;7.63;;;2.80;;
16440;SDS011;8330;-33.858;151.184;2022-11-27T08:36:01;2.80;;;1.65;;
16440;SDS011;8330;-33.858;151.184;2022-11-27T08:38:33;5.70;;;1.50;;
16440;SDS011;8330;-33.858;151.184;2022-11-27T08:41:04;6.00;;;2.10;;
16440;SDS011;8330;-33.858;151.184;2022-11-27T08:43:36;8.65;;;1.95;;
16440;SDS011;8330;-33.858;151.184;2022-11-27T08:46:06;32.08;;;11.07;;
16440;SDS011;8330;-33.858;151.184;2022-11-27T08:48:37;10.75;;;4.07;;
16440;SDS011;8330;-33.858;151.184;2022-11-27T08:51:12;11.20;;;3.50;;
16440;SDS011;8330;-33.858;151.184;2022-11-27T08:53:44;7.57;;;2.53;;
16440;SDS011;8330;-33.858;151.184;2022-11-27T08:56:15;5.57;;;2.30;;
16440;SDS011;8330;-33.858;151.184;2022-11-27T08:58:49;3.65;;;1.50;;
16440;SDS011;8330;-33.858;151.184;2022-11-27T09:01:22;3.42;;;1.40;;
16440;SDS011;8330;-33.858;151.184;2022-11-27T09:03:54;5.90;;;1.75;;
16440;SDS011;8330;-33.858;151.184;2022-11-27T09:06:27;3.72;;;1.38;;
16440;SDS011;8330;-33.858;151.184;2022-11-27T09:09:00;4.93;;;1.50;;
16440;SDS011;8330;-33.858;151.184;2022-11-27T09:11:32;3.95;;;1.27;;
16440;SDS011;8330;-33.858;151.184;2022-11-27T09:14:03;2.90;;;1.48;;
16440;SDS011;8330;-33.858;151.184;2022-11-27T09:16:34;5.85;;;1.60;;
16440;SDS011;8330;-33.858;151.184;2022-11-27T09:19:05;4.25;;;1.40;;
16440;SDS011;8330;-33.858;151.184;2022-11-27T09:21:38;1.80;;;1.30;;
16440;SDS011;8330;-33.858;151.184;2022-11-27T09:24:09;2.47;;;1.30;;
16440;SDS011;8330;-33.858;151.184;2022-11-27T09:26:40;4.47;;;1.50;;
16440;SDS011;8330;-33.858;151.184;2022-11-27T09:29:12;3.17;;;1.70;;
16440;SDS011;8330;-33.858;151.184;2022-11-27T09:31:42;3.00;;;1.40;;
16440;SDS011;8330;-33.858;151.184;2022-11-27T09:34:13;3.40;;;1.40;;
16440;SDS011;8330;-33.858;151.184;2022-11-27T09:36:46;4.10;;;1.38;;
16440;SDS011;8330;-33.858;151.184;2022-11-27T09:39:17;5.50;;;1.60;;
16440;SDS011;8330;-33.858;151.184;2022-11-27T09:41:52;3.72;;;1.40;;
16440;SDS011;8330;-33.858;151.184;2022-11-27T09:44:36;3.92;;;1.48;;
16440;SDS011;8330;-33.858;151.184;2022-11-27T09:47:13;3.25;;;1.73;;
16440;SDS011;8330;-33.858;151.184;2022-11-27T09:49:56;4.05;;;1.65;;
16440;SDS011;8330;-33.858;151.184;2022-11-27T09:52:35;4.00;;;1.60;;
16440;SDS011;8330;-33.858;151.184;2022-11-27T09:55:12;3.78;;;1.30;;
16440;SDS011;8330;-33.858;151.184;2022-11-27T09:58:01;3.10;;;1.30;;
16440;SDS011;8330;-33.858;151.184;2022-11-27T10:00:36;2.08;;;1.30;;
16440;SDS011;8330;-33.858;151.184;2022-11-27T10:03:09;2.28;;;1.15;;
16440;SDS011;8330;-33.858;151.184;2022-11-27T10:05:45;8.95;;;1.52;;
16440;SDS011;8330;-33.858;151.184;2022-11-27T10:08:27;3.33;;;1.58;;
16440;SDS011;8330;-33.858;151.184;2022-11-27T10:11:08;2.00;;;1.55;;
16440;SDS011;8330;-33.858;151.184;2022-11-27T10:13:53;3.30;;;1.90;;
16440;SDS011;8330;-33.858;151.184;2022-11-27T10:16:35;2.40;;;1.50;;
16440;SDS011;8330;-33.858;151.184;2022-11-27T10:19:14;4.60;;;1.85;;
16440;SDS011;8330;-33.858;151.184;2022-11-27T10:21:58;2.67;;;1.70;;
16440;SDS011;8330;-33.858;151.184;2022-11-27T10:24:36;2.67;;;1.90;;
16440;SDS011;8330;-33.858;151.184;2022-11-27T10:27:13;4.90;;;2.00;;
16440;SDS011;8330;-33.858;151.184;2022-11-27T10:29:49;4.55;;;2.40;;
16440;SDS011;8330;-33.858;151.184;2022-11-27T10:32:23;2.00;;;1.20;;
16440;SDS011;8330;-33.858;151.184;2022-11-27T10:34:56;2.97;;;1.70;;
16440;SDS011;8330;-33.858;151.184;2022-11-27T10:37:32;2.85;;;1.25;;
16440;SDS011;8330;-33.858;151.184;2022-11-27T10:40:14;3.33;;;1.10;;
16440;SDS011;8330;-33.858;151.184;2022-11-27T10:42:50;2.92;;;1.10;;
16440;SDS011;8330;-33.858;151.184;2022-11-27T10:45:28;2.55;;;0.90;;
16440;SDS011;8330;-33.858;151.184;2022-11-27T10:48:10;4.20;;;1.30;;
16440;SDS011;8330;-33.858;151.184;2022-11-27T10:50:42;3.15;;;1.30;;
16440;SDS011;8330;-33.858;151.184;2022-11-27T10:53:20;2.13;;;1.10;;
16440;SDS011;8330;-33.858;151.184;2022-11-27T10:55:59;2.33;;;1.00;;
16440;SDS011;8330;-33.858;151.184;2022-11-27T10:58:48;2.55;;;0.90;;
16440;SDS011;8330;-33.858;151.184;2022-11-27T11:01:24;2.08;;;1.05;;
16440;SDS011;8330;-33.858;151.184;2022-11-27T11:04:04;3.88;;;1.05;;
16440;SDS011;8330;-33.858;151.184;2022-11-27T11:06:37;1.92;;;1.00;;
16440;SDS011;8330;-33.858;151.184;2022-11-27T11:09:15;2.00;;;1.10;;
16440;SDS011;8330;-33.858;151.184;2022-11-27T11:11:51;5.15;;;1.15;;
16440;SDS011;8330;-33.858;151.184;2022-11-27T11:14:23;1.80;;;1.08;;
16440;SDS011;8330;-33.858;151.184;2022-11-27T11:16:54;3.30;;;1.23;;
16440;SDS011;8330;-33.858;151.184;2022-11-27T11:19:28;4.43;;;1.20;;
16440;SDS011;8330;-33.858;151.184;2022-11-27T11:22:10;2.78;;;1.20;;
16440;SDS011;8330;-33.858;151.184;2022-11-27T11:24:48;4.45;;;1.00;;
16440;SDS011;8330;-33.858;151.184;2022-11-27T11:27:25;10.70;;;1.45;;
16440;SDS011;8330;-33.858;151.184;2022-11-27T11:29:58;3.15;;;1.20;;
16440;SDS011;8330;-33.858;151.184;2022-11-27T11:32:31;2.72;;;1.13;;
16440;SDS011;8330;-33.858;151.184;2022-11-27T11:35:05;4.18;;;1.00;;
16440;SDS011;8330;-33.858;151.184;2022-11-27T11:37:38;2.63;;;1.27;;
16440;SDS011;8330;-33.858;151.184;2022-11-27T11:40:19;1.42;;;0.90;;
16440;SDS011;8330;-33.858;151.184;2022-11-27T11:42:55;3.72;;;1.20;;
16440;SDS011;8330;-33.858;151.184;2022-11-27T11:45:28;1.92;;;1.15;;
16440;SDS011;8330;-33.858;151.184;2022-11-27T11:48:00;2.45;;;1.10;;
16440;SDS011;8330;-33.858;151.184;2022-11-27T11:50:45;2.00;;;1.02;;
16440;SDS011;8330;-33.858;151.184;2022-11-27T11:53:21;2.08;;;1.00;;
16440;SDS011;8330;-33.858;151.184;2022-11-27T11:56:02;6.13;;;1.42;;
16440;SDS011;8330;-33.858;151.184;2022-11-27T11:58:51;1.83;;;1.27;;
16440;SDS011;8330;-33.858;151.184;2022-11-27T12:01:31;4.53;;;1.58;;
16440;SDS011;8330;-33.858;151.184;2022-11-27T12:04:23;4.22;;;1.80;;
16440;SDS011;8330;-33.858;151.184;2022-11-27T12:07:13;3.95;;;1.45;;
16440;SDS011;8330;-33.858;151.184;2022-11-27T12:09:56;1.55;;;0.73;;
16440;SDS011;8330;-33.858;151.184;2022-11-27T12:12:36;2.83;;;1.00;;
16440;SDS011;8330;-33.858;151.184;2022-11-27T12:15:25;1.98;;;1.05;;
16440;SDS011;8330;-33.858;151.184;2022-11-27T12:18:00;2.67;;;1.00;;
16440;SDS011;8330;-33.858;151.184;2022-11-27T12:20:43;4.30;;;1.02;;
16440;SDS011;8330;-33.858;151.184;2022-11-27T12:26:24;4.72;;;1.70;;
16440;SDS011;8330;-33.858;151.184;2022-11-27T12:29:17;10.43;;;2.35;;
16440;SDS011;8330;-33.858;151.184;2022-11-27T12:32:05;10.15;;;2.92;;
16440;SDS011;8330;-33.858;151.184;2022-11-27T12:34:51;17.73;;;3.60;;
16440;SDS011;8330;-33.858;151.184;2022-11-27T12:37:34;17.85;;;3.55;;
16440;SDS011;8330;-33.858;151.184;2022-11-27T12:40:20;19.73;;;4.20;;
16440;SDS011;8330;-33.858;151.184;2022-11-27T12:42:59;18.80;;;4.50;;
16440;SDS011;8330;-33.858;151.184;2022-11-27T12:45:40;16.00;;;4.20;;
16440;SDS011;8330;-33.858;151.184;2022-11-27T12:48:17;22.40;;;4.82;;
16440;SDS011;8330;-33.858;151.184;2022-11-27T12:50:52;21.10;;;4.35;;
16440;SDS011;8330;-33.858;151.184;2022-11-27T12:53:27;22.38;;;4.40;;
16440;SDS011;8330;-33.858;151.184;2022-11-27T12:56:06;18.80;;;4.32;;
16440;SDS011;8330;-33.858;151.184;2022-11-27T12:58:43;23.02;;;4.65;;
16440;SDS011;8330;-33.858;151.184;2022-11-27T13:01:17;19.35;;;4.22;;
16440;SDS011;8330;-33.858;151.184;2022-11-27T13:04:01;19.02;;;4.10;;
16440;SDS011;8330;-33.858;151.184;2022-11-27T13:06:41;15.38;;;3.40;;
16440;SDS011;8330;-33.858;151.184;2022-11-27T13:09:23;21.50;;;4.30;;
16440;SDS011;8330;-33.858;151.184;2022-11-27T13:12:01;23.65;;;4.30;;
16440;SDS011;8330;-33.858;151.184;2022-11-27T13:14:32;19.63;;;3.70;;
16440;SDS011;8330;-33.858;151.184;2022-11-27T13:17:07;19.25;;;3.70;;
16440;SDS011;8330;-33.858;151.184;2022-11-27T13:19:45;14.90;;;3.75;;
16440;SDS011;8330;-33.858;151.184;2022-11-27T13:22:19;16.15;;;3.63;;
16440;SDS011;8330;-33.858;151.184;2022-11-27T13:24:55;20.98;;;3.92;;
16440;SDS011;8330;-33.858;151.184;2022-11-27T13:27:31;15.80;;;3.63;;
16440;SDS011;8330;-33.858;151.184;2022-11-27T13:30:03;15.70;;;4.05;;
16440;SDS011;8330;-33.858;151.184;2022-11-27T13:32:36;16.02;;;4.28;;
16440;SDS011;8330;-33.858;151.184;2022-11-27T13:35:19;18.50;;;4.40;;
16440;SDS011;8330;-33.858;151.184;2022-11-27T13:37:58;22.08;;;4.55;;
16440;SDS011;8330;-33.858;151.184;2022-11-27T13:40:36;24.98;;;5.05;;
16440;SDS011;8330;-33.858;151.184;2022-11-27T13:43:18;21.73;;;4.32;;
16440;SDS011;8330;-33.858;151.184;2022-11-27T13:45:59;21.15;;;4.78;;
16440;SDS011;8330;-33.858;151.184;2022-11-27T13:48:32;17.58;;;3.70;;
16440;SDS011;8330;-33.858;151.184;2022-11-27T13:51:07;15.75;;;3.65;;
16440;SDS011;8330;-33.858;151.184;2022-11-27T13:53:40;22.42;;;3.75;;
16440;SDS011;8330;-33.858;151.184;2022-11-27T13:56:11;16.80;;;3.45;;
16440;SDS011;8330;-33.858;151.184;2022-11-27T13:58:56;19.10;;;3.50;;
16440;SDS011;8330;-33.858;151.184;2022-11-27T14:01:26;17.92;;;3.75;;
16440;SDS011;8330;-33.858;151.184;2022-11-27T14:04:05;15.13;;;3.50;;
16440;SDS011;8330;-33.858;151.184;2022-11-27T14:06:38;16.23;;;3.33;;
16440;SDS011;8330;-33.858;151.184;2022-11-27T14:09:19;18.38;;;3.78;;
16440;SDS011;8330;-33.858;151.184;2022-11-27T14:12:20;18.13;;;3.63;;
16440;SDS011;8330;-33.858;151.184;2022-11-27T14:14:59;17.05;;;3.22;;
16440;SDS011;8330;-33.858;151.184;2022-11-27T14:17:35;14.77;;;3.45;;
16440;SDS011;8330;-33.858;151.184;2022-11-27T14:20:20;20.75;;;3.40;;
16440;SDS011;8330;-33.858;151.184;2022-11-27T14:22:56;17.92;;;3.38;;
16440;SDS011;8330;-33.858;151.184;2022-11-27T14:25:28;18.23;;;3.67;;
16440;SDS011;8330;-33.858;151.184;2022-11-27T14:28:02;15.50;;;3.38;;
16440;SDS011;8330;-33.858;151.184;2022-11-27T14:30:43;14.93;;;2.95;;
16440;SDS011;8330;-33.858;151.184;2022-11-27T14:33:16;19.40;;;3.28;;
16440;SDS011;8330;-33.858;151.184;2022-11-27T14:35:49;17.60;;;3.42;;
16440;SDS011;8330;-33.858;151.184;2022-11-27T14:38:23;19.30;;;3.28;;
16440;SDS011;8330;-33.858;151.184;2022-11-27T14:40:54;22.23;;;3.88;;
16440;SDS011;8330;-33.858;151.184;2022-11-27T14:43:37;17.95;;;3.70;;
16440;SDS011;8330;-33.858;151.184;2022-11-27T14:46:11;13.02;;;3.25;;
16440;SDS011;8330;-33.858;151.184;2022-11-27T14:48:46;18.48;;;3.85;;
16440;SDS011;8330;-33.858;151.184;2022-11-27T14:51:17;14.25;;;3.55;;
16440;SDS011;8330;-33.858;151.184;2022-11-27T14:53:52;15.02;;;2.67;;
16440;SDS011;8330;-33.858;151.184;2022-11-27T14:56:26;15.07;;;2.97;;
16440;SDS011;8330;-33.858;151.184;2022-11-27T14:59:00;14.98;;;3.33;;
16440;SDS011;8330;-33.858;151.184;2022-11-27T15:01:32;17.05;;;3.10;;
16440;SDS011;8330;-33.858;151.184;2022-11-27T15:04:04;16.10;;;3.70;;
16440;SDS011;8330;-33.858;151.184;2022-11-27T15:06:51;15.90;;;3.20;;
16440;SDS011;8330;-33.858;151.184;2022-11-27T15:09:26;20.13;;;3.50;;